Impacts TAF Board INFO
FOR SITUATIONAL AWARENESS. NOT TO BE USED FOR FLIGHT PLANNING PURPOSES.
IDs:

KPIT - Pittsburgh Intl, PA, US

Issued at 1126 UTC 19 Nov 2017
Updated at 1158 UTC 19 Nov 2017
Potential Impact None Slight Moderate High
Time1151Z 19/12Z 19/13Z 19/14Z 19/15Z 19/16Z 19/17Z 19/18Z 19/19Z 19/20Z 19/21Z 19/22Z 19/23Z 20/00Z>>
Type OBS PRVL PRVL PRVL PRVL PRVL PRVL PRVL PRVL PRVL PRVL PRVL PRVL PRVL
VIS 10 >6 >6 >6 >6 >6 >6 >6 >6 >6 >6 >6 >6 >6
CIG 29 15 15 25 25 25 25 25 20 20 20 20 20 25
Cover OVC OVC OVC OVC OVC OVC OVC OVC OVC OVC OVC OVC OVC OVC
FltCat MVFR MVFR MVFR MVFR MVFR MVFR MVFR MVFR MVFR MVFR MVFR MVFR MVFR MVFR
WX -- -- -- -- -- -- -- -- -SHSN -SHSN -SHSN -SHSN -SHSN --
WDir 280 290 290 290 290 290 290 290 290 290 290 290 290 280
WSpd 18 15 15 15 15 15 15 15 15 15 15 15 15 12
WGst 25 25 25 25 25 25 25 25 25 25 25 25 25 22

Raw TAF
KPIT 191126Z 1912/2018 29015G25KT P6SM OVC015
  FM191400 29015G25KT P6SM OVC025
  FM191900 29015G25KT P6SM -SHSN OVC020
  FM200000 28012G22KT P6SM OVC025
  FM200600 26012KT P6SM BKN035
  FM201200 24012KT P6SM SCT100


Raw METAR
KPIT 191151Z 28018G25KT 10SM FEW013 SCT019 OVC029 03/01 A2968 RMK AO2 SLP062 60002 70121 T00330011 10056 20028 51039
KPIT 191051Z 29017G24KT 10SM OVC020 04/02 A2965 RMK AO2 PK WND 29028/1017 SLP050 T00390017
KPIT 190951Z 27017G22KT 10SM OVC017 03/02 A2961 RMK AO2 PK WND 29027/0917 RAE38DZB38E50 SLP039 P0000 T00330017 $
KPIT 190851Z 27016G24KT 9SM -RA SCT010 OVC015 03/02 A2956 RMK AO2 SLP023 P0000 60002 T00280017 51081

METAR Board
Radar Display
Forecast Discussion

FOR SITUATIONAL AWARENESS. NOT TO BE USED FOR FLIGHT PLANNING PURPOSES.